sensor_id;sensor_type;location;lat;lon;timestamp;P1;durP1;ratioP1;P2;durP2;ratioP2
70313;SDS011;57725;47.526;18.986;2023-06-22T00:02:24;6.53;;;5.00;;
70313;SDS011;57725;47.526;18.986;2023-06-22T00:04:49;5.70;;;5.10;;
70313;SDS011;57725;47.526;18.986;2023-06-22T00:07:17;7.85;;;5.28;;
70313;SDS011;57725;47.526;18.986;2023-06-22T00:09:44;5.70;;;4.78;;
70313;SDS011;57725;47.526;18.986;2023-06-22T00:12:10;5.57;;;4.80;;
70313;SDS011;57725;47.526;18.986;2023-06-22T00:14:37;6.38;;;4.95;;
70313;SDS011;57725;47.526;18.986;2023-06-22T00:17:03;5.70;;;4.93;;
70313;SDS011;57725;47.526;18.986;2023-06-22T00:19:28;5.28;;;4.60;;
70313;SDS011;57725;47.526;18.986;2023-06-22T00:21:54;6.60;;;5.07;;
70313;SDS011;57725;47.526;18.986;2023-06-22T00:24:25;6.15;;;4.63;;
70313;SDS011;57725;47.526;18.986;2023-06-22T00:26:50;6.35;;;5.10;;
70313;SDS011;57725;47.526;18.986;2023-06-22T00:29:16;5.53;;;4.78;;
70313;SDS011;57725;47.526;18.986;2023-06-22T00:31:41;5.68;;;4.97;;
70313;SDS011;57725;47.526;18.986;2023-06-22T00:34:10;9.25;;;5.03;;
70313;SDS011;57725;47.526;18.986;2023-06-22T00:36:40;5.80;;;4.90;;
70313;SDS011;57725;47.526;18.986;2023-06-22T00:39:08;5.22;;;4.45;;
70313;SDS011;57725;47.526;18.986;2023-06-22T00:41:33;5.35;;;4.63;;
70313;SDS011;57725;47.526;18.986;2023-06-22T00:43:59;6.38;;;4.45;;
70313;SDS011;57725;47.526;18.986;2023-06-22T00:46:27;6.07;;;4.68;;
70313;SDS011;57725;47.526;18.986;2023-06-22T00:48:54;6.85;;;5.45;;
70313;SDS011;57725;47.526;18.986;2023-06-22T00:51:22;5.68;;;4.88;;
70313;SDS011;57725;47.526;18.986;2023-06-22T00:53:50;7.35;;;4.60;;
70313;SDS011;57725;47.526;18.986;2023-06-22T00:56:19;9.10;;;4.60;;
70313;SDS011;57725;47.526;18.986;2023-06-22T00:58:49;11.05;;;4.78;;
70313;SDS011;57725;47.526;18.986;2023-06-22T01:01:17;7.88;;;4.15;;
70313;SDS011;57725;47.526;18.986;2023-06-22T01:03:50;10.07;;;4.22;;
70313;SDS011;57725;47.526;18.986;2023-06-22T01:06:25;5.95;;;4.45;;
70313;SDS011;57725;47.526;18.986;2023-06-22T01:09:00;9.55;;;5.03;;
70313;SDS011;57725;47.526;18.986;2023-06-22T01:11:37;9.48;;;3.67;;
70313;SDS011;57725;47.526;18.986;2023-06-22T01:14:18;9.18;;;4.10;;
70313;SDS011;57725;47.526;18.986;2023-06-22T01:16:49;5.68;;;4.03;;
70313;SDS011;57725;47.526;18.986;2023-06-22T01:21:57;6.80;;;3.72;;
70313;SDS011;57725;47.526;18.986;2023-06-22T01:29:55;6.80;;;4.32;;
70313;SDS011;57725;47.526;18.986;2023-06-22T01:32:29;5.68;;;3.80;;
70313;SDS011;57725;47.526;18.986;2023-06-22T01:34:57;7.63;;;4.30;;
70313;SDS011;57725;47.526;18.986;2023-06-22T01:37:29;5.75;;;3.83;;
70313;SDS011;57725;47.526;18.986;2023-06-22T01:39:57;6.93;;;4.18;;
70313;SDS011;57725;47.526;18.986;2023-06-22T01:42:28;6.70;;;3.78;;
70313;SDS011;57725;47.526;18.986;2023-06-22T01:44:55;7.15;;;4.18;;
70313;SDS011;57725;47.526;18.986;2023-06-22T01:47:24;7.13;;;3.65;;
70313;SDS011;57725;47.526;18.986;2023-06-22T01:49:55;7.15;;;4.50;;
70313;SDS011;57725;47.526;18.986;2023-06-22T01:52:20;4.93;;;3.72;;
70313;SDS011;57725;47.526;18.986;2023-06-22T01:54:46;4.72;;;3.45;;
70313;SDS011;57725;47.526;18.986;2023-06-22T01:57:13;4.78;;;3.97;;
70313;SDS011;57725;47.526;18.986;2023-06-22T02:02:13;4.63;;;3.50;;
70313;SDS011;57725;47.526;18.986;2023-06-22T02:04:56;4.50;;;3.58;;
70313;SDS011;57725;47.526;18.986;2023-06-22T02:07:23;6.45;;;3.70;;
70313;SDS011;57725;47.526;18.986;2023-06-22T02:09:53;5.00;;;3.65;;
70313;SDS011;57725;47.526;18.986;2023-06-22T02:12:23;4.15;;;3.50;;
70313;SDS011;57725;47.526;18.986;2023-06-22T02:14:53;3.92;;;3.13;;
70313;SDS011;57725;47.526;18.986;2023-06-22T02:17:19;4.68;;;3.22;;
70313;SDS011;57725;47.526;18.986;2023-06-22T02:19:48;6.07;;;3.15;;
70313;SDS011;57725;47.526;18.986;2023-06-22T02:22:13;5.13;;;3.50;;
70313;SDS011;57725;47.526;18.986;2023-06-22T02:24:38;6.00;;;3.08;;
70313;SDS011;57725;47.526;18.986;2023-06-22T02:27:07;6.97;;;3.47;;
70313;SDS011;57725;47.526;18.986;2023-06-22T02:29:35;4.68;;;2.90;;
70313;SDS011;57725;47.526;18.986;2023-06-22T02:32:02;6.45;;;3.13;;
70313;SDS011;57725;47.526;18.986;2023-06-22T02:34:30;4.10;;;3.10;;
70313;SDS011;57725;47.526;18.986;2023-06-22T02:36:55;6.78;;;3.60;;
70313;SDS011;57725;47.526;18.986;2023-06-22T02:39:21;4.57;;;3.30;;
70313;SDS011;57725;47.526;18.986;2023-06-22T02:41:50;4.97;;;3.30;;
70313;SDS011;57725;47.526;18.986;2023-06-22T02:44:17;4.80;;;3.35;;
70313;SDS011;57725;47.526;18.986;2023-06-22T02:46:43;4.75;;;3.25;;
70313;SDS011;57725;47.526;18.986;2023-06-22T02:49:11;4.90;;;3.58;;
70313;SDS011;57725;47.526;18.986;2023-06-22T02:51:38;4.22;;;3.30;;
70313;SDS011;57725;47.526;18.986;2023-06-22T02:54:07;4.65;;;3.08;;
70313;SDS011;57725;47.526;18.986;2023-06-22T02:56:34;5.30;;;2.78;;
70313;SDS011;57725;47.526;18.986;2023-06-22T02:59:01;3.63;;;2.67;;
70313;SDS011;57725;47.526;18.986;2023-06-22T03:01:27;4.40;;;3.08;;
70313;SDS011;57725;47.526;18.986;2023-06-22T03:03:56;3.78;;;3.10;;
70313;SDS011;57725;47.526;18.986;2023-06-22T03:06:27;6.93;;;3.42;;
70313;SDS011;57725;47.526;18.986;2023-06-22T03:08:57;6.18;;;3.42;;
70313;SDS011;57725;47.526;18.986;2023-06-22T03:11:25;3.50;;;2.95;;
70313;SDS011;57725;47.526;18.986;2023-06-22T03:13:54;7.68;;;3.17;;
70313;SDS011;57725;47.526;18.986;2023-06-22T03:16:19;5.43;;;3.00;;
70313;SDS011;57725;47.526;18.986;2023-06-22T03:18:45;4.82;;;3.40;;
70313;SDS011;57725;47.526;18.986;2023-06-22T03:21:10;3.15;;;2.55;;
70313;SDS011;57725;47.526;18.986;2023-06-22T03:23:35;4.18;;;3.20;;
70313;SDS011;57725;47.526;18.986;2023-06-22T03:26:01;3.85;;;2.83;;
70313;SDS011;57725;47.526;18.986;2023-06-22T03:28:27;6.85;;;2.95;;
70313;SDS011;57725;47.526;18.986;2023-06-22T03:30:52;5.82;;;3.13;;
70313;SDS011;57725;47.526;18.986;2023-06-22T03:33:17;4.80;;;2.92;;
70313;SDS011;57725;47.526;18.986;2023-06-22T03:35:45;5.60;;;2.85;;
70313;SDS011;57725;47.526;18.986;2023-06-22T03:38:11;5.55;;;3.03;;
70313;SDS011;57725;47.526;18.986;2023-06-22T03:40:36;6.00;;;2.90;;
70313;SDS011;57725;47.526;18.986;2023-06-22T03:43:01;3.83;;;2.83;;
70313;SDS011;57725;47.526;18.986;2023-06-22T03:45:29;5.25;;;2.78;;
70313;SDS011;57725;47.526;18.986;2023-06-22T03:47:54;4.55;;;3.25;;
70313;SDS011;57725;47.526;18.986;2023-06-22T03:50:22;3.47;;;2.92;;
70313;SDS011;57725;47.526;18.986;2023-06-22T03:52:50;4.50;;;2.40;;
70313;SDS011;57725;47.526;18.986;2023-06-22T03:55:17;4.43;;;3.10;;
70313;SDS011;57725;47.526;18.986;2023-06-22T03:57:46;4.72;;;2.83;;
70313;SDS011;57725;47.526;18.986;2023-06-22T04:00:12;3.60;;;2.90;;
70313;SDS011;57725;47.526;18.986;2023-06-22T04:02:44;3.80;;;2.90;;
70313;SDS011;57725;47.526;18.986;2023-06-22T04:05:15;3.28;;;2.55;;
70313;SDS011;57725;47.526;18.986;2023-06-22T04:07:42;4.57;;;2.80;;
70313;SDS011;57725;47.526;18.986;2023-06-22T04:10:10;4.38;;;2.58;;
70313;SDS011;57725;47.526;18.986;2023-06-22T04:12:38;5.18;;;2.55;;
70313;SDS011;57725;47.526;18.986;2023-06-22T04:15:05;4.15;;;2.45;;
70313;SDS011;57725;47.526;18.986;2023-06-22T04:17:34;4.22;;;2.78;;
70313;SDS011;57725;47.526;18.986;2023-06-22T04:20:01;4.18;;;2.90;;
70313;SDS011;57725;47.526;18.986;2023-06-22T04:22:31;4.85;;;2.67;;
70313;SDS011;57725;47.526;18.986;2023-06-22T04:24:59;2.97;;;2.22;;
70313;SDS011;57725;47.526;18.986;2023-06-22T04:27:24;3.72;;;2.47;;
70313;SDS011;57725;47.526;18.986;2023-06-22T04:29:52;3.33;;;2.72;;
70313;SDS011;57725;47.526;18.986;2023-06-22T04:32:17;4.88;;;2.67;;
70313;SDS011;57725;47.526;18.986;2023-06-22T04:34:43;2.85;;;2.30;;
70313;SDS011;57725;47.526;18.986;2023-06-22T04:37:09;4.95;;;3.03;;
70313;SDS011;57725;47.526;18.986;2023-06-22T04:39:34;4.40;;;2.78;;
70313;SDS011;57725;47.526;18.986;2023-06-22T04:42:01;2.78;;;2.38;;
70313;SDS011;57725;47.526;18.986;2023-06-22T04:44:31;3.45;;;2.58;;
70313;SDS011;57725;47.526;18.986;2023-06-22T04:46:57;4.43;;;2.72;;
70313;SDS011;57725;47.526;18.986;2023-06-22T04:49:28;4.78;;;2.83;;
70313;SDS011;57725;47.526;18.986;2023-06-22T04:52:01;4.88;;;2.58;;
70313;SDS011;57725;47.526;18.986;2023-06-22T04:54:28;4.47;;;2.83;;
70313;SDS011;57725;47.526;18.986;2023-06-22T04:56:56;3.60;;;3.10;;
70313;SDS011;57725;47.526;18.986;2023-06-22T04:59:27;3.90;;;3.00;;
70313;SDS011;57725;47.526;18.986;2023-06-22T05:01:58;2.67;;;2.25;;
70313;SDS011;57725;47.526;18.986;2023-06-22T05:04:25;4.25;;;2.60;;
70313;SDS011;57725;47.526;18.986;2023-06-22T05:06:53;5.10;;;2.50;;
70313;SDS011;57725;47.526;18.986;2023-06-22T05:09:19;3.88;;;2.75;;
70313;SDS011;57725;47.526;18.986;2023-06-22T05:11:45;5.32;;;2.47;;
70313;SDS011;57725;47.526;18.986;2023-06-22T05:14:13;3.42;;;2.53;;
70313;SDS011;57725;47.526;18.986;2023-06-22T05:16:41;4.07;;;2.25;;
70313;SDS011;57725;47.526;18.986;2023-06-22T05:19:09;4.65;;;2.50;;
70313;SDS011;57725;47.526;18.986;2023-06-22T05:21:35;4.22;;;2.35;;
70313;SDS011;57725;47.526;18.986;2023-06-22T05:24:01;3.70;;;2.40;;
70313;SDS011;57725;47.526;18.986;2023-06-22T05:26:33;3.83;;;2.78;;
70313;SDS011;57725;47.526;18.986;2023-06-22T05:28:59;4.32;;;2.28;;
70313;SDS011;57725;47.526;18.986;2023-06-22T05:31:26;2.83;;;2.22;;
70313;SDS011;57725;47.526;18.986;2023-06-22T05:33:54;5.57;;;2.65;;
70313;SDS011;57725;47.526;18.986;2023-06-22T05:36:21;3.53;;;2.38;;
70313;SDS011;57725;47.526;18.986;2023-06-22T05:38:50;3.80;;;2.60;;
70313;SDS011;57725;47.526;18.986;2023-06-22T05:41:15;4.97;;;2.50;;
70313;SDS011;57725;47.526;18.986;2023-06-22T05:43:43;5.28;;;2.92;;
70313;SDS011;57725;47.526;18.986;2023-06-22T05:46:09;2.90;;;2.58;;
70313;SDS011;57725;47.526;18.986;2023-06-22T05:48:37;3.00;;;2.22;;
70313;SDS011;57725;47.526;18.986;2023-06-22T05:51:02;4.07;;;2.60;;
70313;SDS011;57725;47.526;18.986;2023-06-22T05:53:28;7.47;;;3.28;;
70313;SDS011;57725;47.526;18.986;2023-06-22T05:55:55;4.68;;;2.28;;
70313;SDS011;57725;47.526;18.986;2023-06-22T05:58:23;4.25;;;2.80;;
70313;SDS011;57725;47.526;18.986;2023-06-22T06:00:48;4.38;;;2.65;;
70313;SDS011;57725;47.526;18.986;2023-06-22T06:03:16;5.28;;;2.80;;
70313;SDS011;57725;47.526;18.986;2023-06-22T06:05:42;3.42;;;2.72;;
70313;SDS011;57725;47.526;18.986;2023-06-22T06:08:10;3.92;;;2.40;;
70313;SDS011;57725;47.526;18.986;2023-06-22T06:10:37;3.35;;;2.42;;
70313;SDS011;57725;47.526;18.986;2023-06-22T06:13:05;6.10;;;2.92;;
70313;SDS011;57725;47.526;18.986;2023-06-22T06:15:33;4.00;;;2.88;;
70313;SDS011;57725;47.526;18.986;2023-06-22T06:18:02;2.70;;;2.30;;
70313;SDS011;57725;47.526;18.986;2023-06-22T06:20:30;2.78;;;2.30;;
70313;SDS011;57725;47.526;18.986;2023-06-22T06:22:56;3.05;;;2.03;;
70313;SDS011;57725;47.526;18.986;2023-06-22T06:25:22;5.38;;;2.72;;
70313;SDS011;57725;47.526;18.986;2023-06-22T06:27:48;5.75;;;2.80;;
70313;SDS011;57725;47.526;18.986;2023-06-22T06:30:17;4.18;;;2.55;;
70313;SDS011;57725;47.526;18.986;2023-06-22T06:32:46;3.00;;;2.10;;
70313;SDS011;57725;47.526;18.986;2023-06-22T06:35:12;4.55;;;2.20;;
70313;SDS011;57725;47.526;18.986;2023-06-22T06:37:43;6.40;;;2.92;;
70313;SDS011;57725;47.526;18.986;2023-06-22T06:40:13;2.55;;;2.20;;
70313;SDS011;57725;47.526;18.986;2023-06-22T06:42:44;4.38;;;2.30;;
70313;SDS011;57725;47.526;18.986;2023-06-22T06:45:12;3.83;;;2.40;;
70313;SDS011;57725;47.526;18.986;2023-06-22T06:47:42;3.90;;;2.50;;
70313;SDS011;57725;47.526;18.986;2023-06-22T06:50:08;4.78;;;2.97;;
70313;SDS011;57725;47.526;18.986;2023-06-22T06:52:36;3.38;;;2.33;;
70313;SDS011;57725;47.526;18.986;2023-06-22T06:55:04;3.28;;;2.45;;
70313;SDS011;57725;47.526;18.986;2023-06-22T06:57:35;4.68;;;2.58;;
70313;SDS011;57725;47.526;18.986;2023-06-22T07:00:02;3.67;;;2.38;;
70313;SDS011;57725;47.526;18.986;2023-06-22T07:02:35;3.43;;;2.00;;
70313;SDS011;57725;47.526;18.986;2023-06-22T07:05:00;5.63;;;2.72;;
70313;SDS011;57725;47.526;18.986;2023-06-22T07:07:33;3.72;;;2.35;;
70313;SDS011;57725;47.526;18.986;2023-06-22T07:09:59;3.22;;;2.55;;
70313;SDS011;57725;47.526;18.986;2023-06-22T07:12:24;3.72;;;2.20;;
70313;SDS011;57725;47.526;18.986;2023-06-22T07:14:52;4.13;;;2.25;;
70313;SDS011;57725;47.526;18.986;2023-06-22T07:17:20;4.43;;;2.55;;
70313;SDS011;57725;47.526;18.986;2023-06-22T07:19:49;6.05;;;2.70;;
70313;SDS011;57725;47.526;18.986;2023-06-22T07:22:17;3.75;;;2.08;;
70313;SDS011;57725;47.526;18.986;2023-06-22T07:24:44;6.40;;;2.15;;
70313;SDS011;57725;47.526;18.986;2023-06-22T07:27:10;3.22;;;2.33;;
70313;SDS011;57725;47.526;18.986;2023-06-22T07:29:37;3.20;;;2.08;;
70313;SDS011;57725;47.526;18.986;2023-06-22T07:32:05;3.75;;;2.35;;
70313;SDS011;57725;47.526;18.986;2023-06-22T07:34:33;3.70;;;2.40;;
70313;SDS011;57725;47.526;18.986;2023-06-22T07:36:59;2.97;;;1.98;;
70313;SDS011;57725;47.526;18.986;2023-06-22T07:39:24;3.53;;;2.28;;
70313;SDS011;57725;47.526;18.986;2023-06-22T07:41:51;3.65;;;2.33;;
70313;SDS011;57725;47.526;18.986;2023-06-22T07:44:17;5.10;;;2.85;;
70313;SDS011;57725;47.526;18.986;2023-06-22T07:46:44;4.15;;;2.58;;
70313;SDS011;57725;47.526;18.986;2023-06-22T07:49:10;5.47;;;2.55;;
70313;SDS011;57725;47.526;18.986;2023-06-22T07:51:37;4.97;;;2.28;;
70313;SDS011;57725;47.526;18.986;2023-06-22T07:54:08;4.05;;;2.88;;
70313;SDS011;57725;47.526;18.986;2023-06-22T07:56:34;2.80;;;1.98;;
70313;SDS011;57725;47.526;18.986;2023-06-22T07:59:01;3.78;;;2.47;;
70313;SDS011;57725;47.526;18.986;2023-06-22T08:01:28;3.60;;;2.40;;
70313;SDS011;57725;47.526;18.986;2023-06-22T08:03:56;4.20;;;2.53;;
70313;SDS011;57725;47.526;18.986;2023-06-22T08:06:21;4.10;;;2.45;;
70313;SDS011;57725;47.526;18.986;2023-06-22T08:08:52;3.55;;;2.22;;
70313;SDS011;57725;47.526;18.986;2023-06-22T08:11:23;4.80;;;2.25;;
70313;SDS011;57725;47.526;18.986;2023-06-22T08:13:50;2.35;;;2.05;;
70313;SDS011;57725;47.526;18.986;2023-06-22T08:16:20;4.43;;;2.58;;
70313;SDS011;57725;47.526;18.986;2023-06-22T08:18:48;5.32;;;2.67;;
70313;SDS011;57725;47.526;18.986;2023-06-22T08:21:14;4.40;;;2.63;;
70313;SDS011;57725;47.526;18.986;2023-06-22T08:23:39;3.80;;;2.25;;
70313;SDS011;57725;47.526;18.986;2023-06-22T08:26:07;3.90;;;2.20;;
70313;SDS011;57725;47.526;18.986;2023-06-22T08:28:32;3.42;;;2.60;;
70313;SDS011;57725;47.526;18.986;2023-06-22T08:30:59;3.40;;;2.72;;
70313;SDS011;57725;47.526;18.986;2023-06-22T08:33:26;5.28;;;2.90;;
70313;SDS011;57725;47.526;18.986;2023-06-22T08:35:53;4.85;;;2.70;;
70313;SDS011;57725;47.526;18.986;2023-06-22T08:38:26;4.38;;;2.25;;
70313;SDS011;57725;47.526;18.986;2023-06-22T08:40:53;3.55;;;2.35;;
70313;SDS011;57725;47.526;18.986;2023-06-22T08:43:19;4.47;;;2.17;;
70313;SDS011;57725;47.526;18.986;2023-06-22T08:45:44;4.80;;;2.65;;
70313;SDS011;57725;47.526;18.986;2023-06-22T08:48:10;4.13;;;2.85;;
70313;SDS011;57725;47.526;18.986;2023-06-22T08:50:36;5.03;;;2.50;;
70313;SDS011;57725;47.526;18.986;2023-06-22T08:53:01;4.18;;;2.30;;
70313;SDS011;57725;47.526;18.986;2023-06-22T08:55:26;4.40;;;2.75;;
70313;SDS011;57725;47.526;18.986;2023-06-22T08:57:52;4.10;;;2.58;;
70313;SDS011;57725;47.526;18.986;2023-06-22T09:00:17;4.70;;;3.22;;
70313;SDS011;57725;47.526;18.986;2023-06-22T09:02:47;3.67;;;2.80;;
70313;SDS011;57725;47.526;18.986;2023-06-22T09:05:15;5.20;;;3.17;;
70313;SDS011;57725;47.526;18.986;2023-06-22T09:07:41;4.55;;;2.90;;
70313;SDS011;57725;47.526;18.986;2023-06-22T09:10:12;4.65;;;2.92;;
70313;SDS011;57725;47.526;18.986;2023-06-22T09:12:38;5.18;;;3.28;;
70313;SDS011;57725;47.526;18.986;2023-06-22T09:15:04;6.82;;;3.22;;
70313;SDS011;57725;47.526;18.986;2023-06-22T09:17:31;4.07;;;3.45;;
70313;SDS011;57725;47.526;18.986;2023-06-22T09:19:57;4.93;;;4.05;;
70313;SDS011;57725;47.526;18.986;2023-06-22T09:22:23;5.32;;;4.05;;
70313;SDS011;57725;47.526;18.986;2023-06-22T09:24:56;6.50;;;3.67;;
70313;SDS011;57725;47.526;18.986;2023-06-22T09:27:25;5.65;;;3.80;;
70313;SDS011;57725;47.526;18.986;2023-06-22T09:29:50;4.60;;;3.58;;
70313;SDS011;57725;47.526;18.986;2023-06-22T09:32:18;7.90;;;3.67;;
70313;SDS011;57725;47.526;18.986;2023-06-22T09:34:43;7.10;;;4.40;;
70313;SDS011;57725;47.526;18.986;2023-06-22T09:37:08;5.03;;;3.88;;
70313;SDS011;57725;47.526;18.986;2023-06-22T09:39:34;4.70;;;3.92;;
70313;SDS011;57725;47.526;18.986;2023-06-22T09:41:59;5.28;;;4.32;;
70313;SDS011;57725;47.526;18.986;2023-06-22T09:44:25;5.70;;;4.07;;
70313;SDS011;57725;47.526;18.986;2023-06-22T09:46:50;5.05;;;3.90;;
70313;SDS011;57725;47.526;18.986;2023-06-22T09:49:16;4.22;;;3.75;;
70313;SDS011;57725;47.526;18.986;2023-06-22T09:51:44;5.30;;;4.30;;
70313;SDS011;57725;47.526;18.986;2023-06-22T09:54:11;4.43;;;4.00;;
70313;SDS011;57725;47.526;18.986;2023-06-22T09:56:39;8.05;;;5.20;;
70313;SDS011;57725;47.526;18.986;2023-06-22T09:59:04;6.68;;;4.40;;
70313;SDS011;57725;47.526;18.986;2023-06-22T10:01:30;5.53;;;4.32;;
70313;SDS011;57725;47.526;18.986;2023-06-22T10:03:55;4.95;;;4.45;;
70313;SDS011;57725;47.526;18.986;2023-06-22T10:06:25;5.32;;;4.82;;
70313;SDS011;57725;47.526;18.986;2023-06-22T10:08:51;5.22;;;4.72;;
70313;SDS011;57725;47.526;18.986;2023-06-22T10:11:16;6.72;;;4.53;;
70313;SDS011;57725;47.526;18.986;2023-06-22T10:13:42;5.90;;;5.13;;
70313;SDS011;57725;47.526;18.986;2023-06-22T10:16:12;5.57;;;4.65;;
70313;SDS011;57725;47.526;18.986;2023-06-22T10:18:40;7.22;;;5.40;;
70313;SDS011;57725;47.526;18.986;2023-06-22T10:21:11;7.60;;;5.50;;
70313;SDS011;57725;47.526;18.986;2023-06-22T10:23:38;7.30;;;5.75;;
70313;SDS011;57725;47.526;18.986;2023-06-22T10:26:04;5.53;;;4.93;;
70313;SDS011;57725;47.526;18.986;2023-06-22T10:28:31;6.38;;;5.57;;
70313;SDS011;57725;47.526;18.986;2023-06-22T10:31:01;6.47;;;5.03;;
70313;SDS011;57725;47.526;18.986;2023-06-22T10:33:29;7.32;;;5.63;;
70313;SDS011;57725;47.526;18.986;2023-06-22T10:35:57;6.85;;;5.43;;
70313;SDS011;57725;47.526;18.986;2023-06-22T10:38:23;6.50;;;5.25;;
70313;SDS011;57725;47.526;18.986;2023-06-22T10:40:50;6.00;;;5.40;;
70313;SDS011;57725;47.526;18.986;2023-06-22T10:43:18;6.18;;;5.38;;
70313;SDS011;57725;47.526;18.986;2023-06-22T10:45:44;6.28;;;5.60;;
70313;SDS011;57725;47.526;18.986;2023-06-22T10:48:12;7.10;;;5.82;;
70313;SDS011;57725;47.526;18.986;2023-06-22T10:50:37;6.38;;;5.82;;
70313;SDS011;57725;47.526;18.986;2023-06-22T10:53:03;7.00;;;6.30;;
70313;SDS011;57725;47.526;18.986;2023-06-22T10:55:31;8.40;;;5.95;;
70313;SDS011;57725;47.526;18.986;2023-06-22T10:57:58;7.05;;;6.35;;
70313;SDS011;57725;47.526;18.986;2023-06-22T11:00:24;7.50;;;6.55;;
70313;SDS011;57725;47.526;18.986;2023-06-22T11:02:49;8.60;;;7.40;;
70313;SDS011;57725;47.526;18.986;2023-06-22T11:05:17;7.45;;;6.75;;
70313;SDS011;57725;47.526;18.986;2023-06-22T11:07:45;7.78;;;6.95;;
70313;SDS011;57725;47.526;18.986;2023-06-22T11:10:14;7.32;;;6.63;;
70313;SDS011;57725;47.526;18.986;2023-06-22T11:12:40;7.63;;;6.82;;
70313;SDS011;57725;47.526;18.986;2023-06-22T11:15:05;8.85;;;7.43;;
70313;SDS011;57725;47.526;18.986;2023-06-22T11:17:36;8.10;;;7.40;;
70313;SDS011;57725;47.526;18.986;2023-06-22T11:20:02;10.18;;;7.25;;
70313;SDS011;57725;47.526;18.986;2023-06-22T11:22:34;7.80;;;6.65;;
70313;SDS011;57725;47.526;18.986;2023-06-22T11:25:00;8.07;;;7.28;;
70313;SDS011;57725;47.526;18.986;2023-06-22T11:27:28;9.55;;;7.47;;
70313;SDS011;57725;47.526;18.986;2023-06-22T11:29:58;7.68;;;6.97;;
70313;SDS011;57725;47.526;18.986;2023-06-22T11:32:25;7.57;;;6.88;;
70313;SDS011;57725;47.526;18.986;2023-06-22T11:34:51;8.10;;;7.10;;
70313;SDS011;57725;47.526;18.986;2023-06-22T11:37:16;9.07;;;7.00;;
70313;SDS011;57725;47.526;18.986;2023-06-22T11:39:42;10.13;;;7.22;;
70313;SDS011;57725;47.526;18.986;2023-06-22T11:42:08;7.55;;;6.80;;
70313;SDS011;57725;47.526;18.986;2023-06-22T11:44:36;9.52;;;7.35;;
70313;SDS011;57725;47.526;18.986;2023-06-22T11:47:01;9.85;;;7.25;;
70313;SDS011;57725;47.526;18.986;2023-06-22T11:49:35;8.30;;;6.65;;
70313;SDS011;57725;47.526;18.986;2023-06-22T11:54:28;8.32;;;7.35;;
70313;SDS011;57725;47.526;18.986;2023-06-22T11:56:55;7.85;;;7.05;;
70313;SDS011;57725;47.526;18.986;2023-06-22T11:59:21;7.95;;;7.10;;
70313;SDS011;57725;47.526;18.986;2023-06-22T12:01:47;8.07;;;7.10;;
70313;SDS011;57725;47.526;18.986;2023-06-22T12:04:12;7.85;;;7.05;;
70313;SDS011;57725;47.526;18.986;2023-06-22T12:06:44;8.52;;;7.65;;
70313;SDS011;57725;47.526;18.986;2023-06-22T12:09:12;8.18;;;7.00;;
70313;SDS011;57725;47.526;18.986;2023-06-22T12:11:38;8.45;;;6.93;;
70313;SDS011;57725;47.526;18.986;2023-06-22T12:14:04;9.52;;;7.85;;
70313;SDS011;57725;47.526;18.986;2023-06-22T12:16:29;7.55;;;6.85;;
70313;SDS011;57725;47.526;18.986;2023-06-22T12:18:55;8.55;;;7.53;;
70313;SDS011;57725;47.526;18.986;2023-06-22T12:21:20;8.55;;;7.47;;
70313;SDS011;57725;47.526;18.986;2023-06-22T12:23:48;9.05;;;7.35;;
70313;SDS011;57725;47.526;18.986;2023-06-22T12:26:13;8.18;;;7.28;;
70313;SDS011;57725;47.526;18.986;2023-06-22T12:28:39;7.78;;;6.97;;
70313;SDS011;57725;47.526;18.986;2023-06-22T12:31:04;8.68;;;7.72;;
70313;SDS011;57725;47.526;18.986;2023-06-22T12:33:30;8.68;;;7.35;;
70313;SDS011;57725;47.526;18.986;2023-06-22T12:36:02;8.30;;;7.50;;
70313;SDS011;57725;47.526;18.986;2023-06-22T12:38:30;8.30;;;7.28;;
70313;SDS011;57725;47.526;18.986;2023-06-22T12:40:58;8.32;;;7.40;;
70313;SDS011;57725;47.526;18.986;2023-06-22T12:43:26;8.40;;;7.53;;
70313;SDS011;57725;47.526;18.986;2023-06-22T12:45:51;8.10;;;7.30;;
70313;SDS011;57725;47.526;18.986;2023-06-22T12:48:18;9.77;;;7.68;;
70313;SDS011;57725;47.526;18.986;2023-06-22T12:50:43;8.05;;;7.25;;
70313;SDS011;57725;47.526;18.986;2023-06-22T12:53:09;8.90;;;7.95;;
70313;SDS011;57725;47.526;18.986;2023-06-22T12:55:34;10.02;;;8.13;;
70313;SDS011;57725;47.526;18.986;2023-06-22T12:58:00;8.00;;;7.20;;
70313;SDS011;57725;47.526;18.986;2023-06-22T13:00:30;10.60;;;7.55;;
70313;SDS011;57725;47.526;18.986;2023-06-22T13:02:57;8.70;;;7.80;;
70313;SDS011;57725;47.526;18.986;2023-06-22T13:05:23;7.90;;;7.10;;
70313;SDS011;57725;47.526;18.986;2023-06-22T13:07:54;9.18;;;7.57;;
70313;SDS011;57725;47.526;18.986;2023-06-22T13:10:22;8.25;;;7.43;;
70313;SDS011;57725;47.526;18.986;2023-06-22T13:12:47;10.63;;;8.15;;
70313;SDS011;57725;47.526;18.986;2023-06-22T13:15:12;8.32;;;7.35;;
70313;SDS011;57725;47.526;18.986;2023-06-22T13:17:38;7.97;;;7.20;;
70313;SDS011;57725;47.526;18.986;2023-06-22T13:20:03;8.95;;;7.80;;
70313;SDS011;57725;47.526;18.986;2023-06-22T13:22:33;11.70;;;7.43;;
70313;SDS011;57725;47.526;18.986;2023-06-22T13:25:04;9.98;;;8.52;;
70313;SDS011;57725;47.526;18.986;2023-06-22T13:27:31;8.48;;;7.57;;
70313;SDS011;57725;47.526;18.986;2023-06-22T13:29:59;9.68;;;7.85;;
70313;SDS011;57725;47.526;18.986;2023-06-22T13:32:24;8.57;;;7.68;;
70313;SDS011;57725;47.526;18.986;2023-06-22T13:34:50;8.88;;;7.55;;
70313;SDS011;57725;47.526;18.986;2023-06-22T13:37:20;8.77;;;7.68;;
70313;SDS011;57725;47.526;18.986;2023-06-22T13:39:45;8.63;;;7.72;;
70313;SDS011;57725;47.526;18.986;2023-06-22T13:42:10;8.25;;;7.50;;
70313;SDS011;57725;47.526;18.986;2023-06-22T13:44:36;8.65;;;7.75;;
70313;SDS011;57725;47.526;18.986;2023-06-22T13:47:01;9.18;;;8.20;;
70313;SDS011;57725;47.526;18.986;2023-06-22T13:49:29;12.90;;;8.10;;
70313;SDS011;57725;47.526;18.986;2023-06-22T13:51:55;9.30;;;7.55;;
70313;SDS011;57725;47.526;18.986;2023-06-22T13:54:24;7.95;;;7.15;;
70313;SDS011;57725;47.526;18.986;2023-06-22T13:56:50;8.85;;;7.95;;
70313;SDS011;57725;47.526;18.986;2023-06-22T13:59:18;10.82;;;7.68;;
70313;SDS011;57725;47.526;18.986;2023-06-22T14:01:46;8.98;;;7.55;;
70313;SDS011;57725;47.526;18.986;2023-06-22T14:04:22;8.50;;;7.68;;
70313;SDS011;57725;47.526;18.986;2023-06-22T14:06:48;10.95;;;7.35;;
70313;SDS011;57725;47.526;18.986;2023-06-22T14:09:16;8.88;;;7.55;;
70313;SDS011;57725;47.526;18.986;2023-06-22T14:11:41;8.57;;;7.70;;
70313;SDS011;57725;47.526;18.986;2023-06-22T14:14:07;8.20;;;7.43;;
70313;SDS011;57725;47.526;18.986;2023-06-22T14:19:08;8.07;;;7.25;;
70313;SDS011;57725;47.526;18.986;2023-06-22T14:21:33;8.65;;;7.28;;
70313;SDS011;57725;47.526;18.986;2023-06-22T14:24:12;8.23;;;7.43;;
70313;SDS011;57725;47.526;18.986;2023-06-22T14:26:39;7.90;;;7.05;;
70313;SDS011;57725;47.526;18.986;2023-06-22T14:29:05;8.50;;;7.70;;
70313;SDS011;57725;47.526;18.986;2023-06-22T14:31:30;8.50;;;7.63;;
70313;SDS011;57725;47.526;18.986;2023-06-22T14:33:56;8.75;;;7.85;;
70313;SDS011;57725;47.526;18.986;2023-06-22T14:36:26;9.25;;;8.23;;
70313;SDS011;57725;47.526;18.986;2023-06-22T14:38:51;9.88;;;7.70;;
70313;SDS011;57725;47.526;18.986;2023-06-22T14:41:19;8.40;;;7.60;;
70313;SDS011;57725;47.526;18.986;2023-06-22T14:43:47;9.05;;;7.38;;
70313;SDS011;57725;47.526;18.986;2023-06-22T14:46:15;11.20;;;8.48;;
70313;SDS011;57725;47.526;18.986;2023-06-22T14:48:46;8.60;;;7.00;;
70313;SDS011;57725;47.526;18.986;2023-06-22T14:51:12;9.15;;;7.53;;